sensor_id;sensor_type;location;lat;lon;timestamp;pressure;altitude;pressure_sealevel;temperature;humidity
9281;BME280;4679;47.966;7.958;2024-01-25T07:49:50;98555.44;;;7.94;91.58
9281;BME280;4679;47.966;7.958;2024-01-25T07:51:51;98553.41;;;7.96;91.71
9281;BME280;4679;47.966;7.958;2024-01-25T07:53:53;98556.84;;;7.97;91.88
9281;BME280;4679;47.966;7.958;2024-01-25T07:55:54;98557.69;;;7.97;92.08
9281;BME280;4679;47.966;7.958;2024-01-25T07:57:56;98547.91;;;7.98;91.74
9281;BME280;4679;47.966;7.958;2024-01-25T07:59:57;98543.25;;;8.00;91.98
9281;BME280;4679;47.966;7.958;2024-01-25T08:01:59;98537.59;;;8.03;91.73
9281;BME280;4679;47.966;7.958;2024-01-25T08:04:00;98546.16;;;8.05;91.26
9281;BME280;4679;47.966;7.958;2024-01-25T08:06:05;98548.63;;;8.06;92.08
9281;BME280;4679;47.966;7.958;2024-01-25T08:08:06;98545.16;;;8.06;91.49
9281;BME280;4679;47.966;7.958;2024-01-25T08:10:09;98548.44;;;8.08;91.64
9281;BME280;4679;47.966;7.958;2024-01-25T08:12:10;98546.78;;;8.07;91.71
9281;BME280;4679;47.966;7.958;2024-01-25T08:14:12;98541.31;;;8.08;91.95
9281;BME280;4679;47.966;7.958;2024-01-25T08:16:14;98543.75;;;8.10;92.01
9281;BME280;4679;47.966;7.958;2024-01-25T08:18:19;98540.09;;;8.11;91.93
9281;BME280;4679;47.966;7.958;2024-01-25T08:20:23;98539.09;;;8.12;91.84
9281;BME280;4679;47.966;7.958;2024-01-25T08:22:26;98538.88;;;8.13;91.66
9281;BME280;4679;47.966;7.958;2024-01-25T08:24:28;98536.88;;;8.16;91.81
9281;BME280;4679;47.966;7.958;2024-01-25T08:26:30;98540.34;;;8.16;91.88
9281;BME280;4679;47.966;7.958;2024-01-25T08:28:32;98536.69;;;8.17;92.01
9281;BME280;4679;47.966;7.958;2024-01-25T08:30:34;98539.13;;;8.19;91.62
9281;BME280;4679;47.966;7.958;2024-01-25T08:32:35;98541.78;;;8.19;91.94
9281;BME280;4679;47.966;7.958;2024-01-25T08:34:37;98543.78;;;8.17;91.67
9281;BME280;4679;47.966;7.958;2024-01-25T08:36:38;98551.91;;;8.15;91.80
9281;BME280;4679;47.966;7.958;2024-01-25T08:38:41;98547.63;;;8.14;92.05
9281;BME280;4679;47.966;7.958;2024-01-25T08:40:43;98548.47;;;8.15;91.56
9281;BME280;4679;47.966;7.958;2024-01-25T08:42:44;98558.03;;;8.16;91.91
9281;BME280;4679;47.966;7.958;2024-01-25T08:44:45;98557.22;;;8.15;91.77
9281;BME280;4679;47.966;7.958;2024-01-25T08:46:49;98560.84;;;8.14;92.08
9281;BME280;4679;47.966;7.958;2024-01-25T08:48:51;98561.88;;;8.13;91.86
9281;BME280;4679;47.966;7.958;2024-01-25T08:50:53;98566.16;;;8.14;91.94
9281;BME280;4679;47.966;7.958;2024-01-25T08:52:55;98561.50;;;8.16;92.07
9281;BME280;4679;47.966;7.958;2024-01-25T08:54:58;98563.13;;;8.17;92.44
9281;BME280;4679;47.966;7.958;2024-01-25T08:56:59;98569.41;;;8.16;91.84
9281;BME280;4679;47.966;7.958;2024-01-25T08:59:01;98569.59;;;8.15;92.03
9281;BME280;4679;47.966;7.958;2024-01-25T09:01:02;98566.78;;;8.16;92.06
9281;BME280;4679;47.966;7.958;2024-01-25T09:03:04;98571.25;;;8.16;91.71
9281;BME280;4679;47.966;7.958;2024-01-25T09:05:07;98562.31;;;8.17;91.77
9281;BME280;4679;47.966;7.958;2024-01-25T09:07:08;98562.13;;;8.18;91.82
9281;BME280;4679;47.966;7.958;2024-01-25T09:09:10;98565.38;;;8.20;92.19
9281;BME280;4679;47.966;7.958;2024-01-25T09:11:14;98563.19;;;8.24;91.20
9281;BME280;4679;47.966;7.958;2024-01-25T09:13:15;98565.59;;;8.25;91.86
9281;BME280;4679;47.966;7.958;2024-01-25T09:15:17;98561.56;;;8.29;91.93
9281;BME280;4679;47.966;7.958;2024-01-25T09:17:18;98549.84;;;8.32;92.00
9281;BME280;4679;47.966;7.958;2024-01-25T09:19:22;98557.38;;;8.35;91.87
9281;BME280;4679;47.966;7.958;2024-01-25T09:21:24;98557.81;;;8.38;92.28
9281;BME280;4679;47.966;7.958;2024-01-25T09:23:26;98550.47;;;8.40;91.90
9281;BME280;4679;47.966;7.958;2024-01-25T09:25:27;98559.88;;;8.43;91.80
9281;BME280;4679;47.966;7.958;2024-01-25T09:27:30;98558.47;;;8.47;91.77
9281;BME280;4679;47.966;7.958;2024-01-25T09:29:32;98557.28;;;8.50;91.93
9281;BME280;4679;47.966;7.958;2024-01-25T09:31:33;98556.06;;;8.52;92.03
9281;BME280;4679;47.966;7.958;2024-01-25T09:33:35;98564.63;;;8.54;91.96
9281;BME280;4679;47.966;7.958;2024-01-25T09:35:36;98553.63;;;8.57;91.77
9281;BME280;4679;47.966;7.958;2024-01-25T09:37:38;98559.94;;;8.56;92.02
9281;BME280;4679;47.966;7.958;2024-01-25T09:39:39;98558.94;;;8.57;91.79
9281;BME280;4679;47.966;7.958;2024-01-25T09:41:41;98566.03;;;8.57;92.19
9281;BME280;4679;47.966;7.958;2024-01-25T09:43:45;98560.97;;;8.55;91.56
9281;BME280;4679;47.966;7.958;2024-01-25T09:45:48;98560.53;;;8.52;92.03
9281;BME280;4679;47.966;7.958;2024-01-25T09:47:54;98567.84;;;8.50;91.93
9281;BME280;4679;47.966;7.958;2024-01-25T09:49:55;98577.63;;;8.49;91.83
9281;BME280;4679;47.966;7.958;2024-01-25T09:51:57;98584.72;;;8.49;92.10
9281;BME280;4679;47.966;7.958;2024-01-25T09:54:00;98585.56;;;8.49;91.81
9281;BME280;4679;47.966;7.958;2024-01-25T09:56:05;98580.06;;;8.51;92.18
9281;BME280;4679;47.966;7.958;2024-01-25T09:58:08;98570.75;;;8.55;92.01
9281;BME280;4679;47.966;7.958;2024-01-25T10:00:14;98573.97;;;8.57;91.75
9281;BME280;4679;47.966;7.958;2024-01-25T10:02:16;98579.09;;;8.58;92.13
9281;BME280;4679;47.966;7.958;2024-01-25T10:04:17;98573.38;;;8.55;92.10
9281;BME280;4679;47.966;7.958;2024-01-25T10:06:22;98569.91;;;8.54;92.02
9281;BME280;4679;47.966;7.958;2024-01-25T10:08:24;98580.50;;;8.54;91.71
9281;BME280;4679;47.966;7.958;2024-01-25T10:10:25;98580.09;;;8.57;92.02
9281;BME280;4679;47.966;7.958;2024-01-25T10:12:27;98584.19;;;8.60;91.85
9281;BME280;4679;47.966;7.958;2024-01-25T10:14:28;98584.78;;;8.55;91.88
9281;BME280;4679;47.966;7.958;2024-01-25T10:16:31;98579.50;;;8.55;92.32
9281;BME280;4679;47.966;7.958;2024-01-25T10:18:33;98585.78;;;8.54;92.04
9281;BME280;4679;47.966;7.958;2024-01-25T10:20:34;98578.88;;;8.53;91.97
9281;BME280;4679;47.966;7.958;2024-01-25T10:22:37;98585.56;;;8.56;92.05
9281;BME280;4679;47.966;7.958;2024-01-25T10:24:39;98578.47;;;8.56;92.09
9281;BME280;4679;47.966;7.958;2024-01-25T10:26:41;98574.59;;;8.59;91.90
9281;BME280;4679;47.966;7.958;2024-01-25T10:28:50;98577.06;;;8.60;91.94
9281;BME280;4679;47.966;7.958;2024-01-25T10:30:55;98579.13;;;8.65;91.85
9281;BME280;4679;47.966;7.958;2024-01-25T10:32:59;98573.47;;;8.68;92.16
9281;BME280;4679;47.966;7.958;2024-01-25T10:35:01;98574.91;;;8.70;92.13
9281;BME280;4679;47.966;7.958;2024-01-25T10:37:05;98573.66;;;8.73;91.93
9281;BME280;4679;47.966;7.958;2024-01-25T10:39:08;98563.50;;;8.76;91.84
9281;BME280;4679;47.966;7.958;2024-01-25T10:41:10;98557.03;;;8.79;91.90
9281;BME280;4679;47.966;7.958;2024-01-25T10:43:13;98559.47;;;8.80;91.87
9281;BME280;4679;47.966;7.958;2024-01-25T10:45:15;98553.97;;;8.82;92.22
9281;BME280;4679;47.966;7.958;2024-01-25T10:47:16;98560.28;;;8.81;92.12
9281;BME280;4679;47.966;7.958;2024-01-25T10:49:20;98552.34;;;8.81;92.04
9281;BME280;4679;47.966;7.958;2024-01-25T10:51:22;98556.25;;;8.85;91.72
9281;BME280;4679;47.966;7.958;2024-01-25T10:53:24;98542.78;;;8.87;92.20
9281;BME280;4679;47.966;7.958;2024-01-25T10:55:26;98553.19;;;8.88;92.01
9281;BME280;4679;47.966;7.958;2024-01-25T10:57:34;98550.53;;;8.88;92.17
9281;BME280;4679;47.966;7.958;2024-01-25T10:59:35;98546.25;;;8.87;91.74
9281;BME280;4679;47.966;7.958;2024-01-25T11:01:37;98541.19;;;8.92;92.23
9281;BME280;4679;47.966;7.958;2024-01-25T11:03:39;98537.75;;;8.98;91.63
9281;BME280;4679;47.966;7.958;2024-01-25T11:05:43;98541.03;;;9.00;91.75
9281;BME280;4679;47.966;7.958;2024-01-25T11:07:44;98531.03;;;9.02;91.68
9281;BME280;4679;47.966;7.958;2024-01-25T11:09:51;98532.28;;;9.06;91.87
9281;BME280;4679;47.966;7.958;2024-01-25T11:11:54;98532.91;;;9.08;91.98
9281;BME280;4679;47.966;7.958;2024-01-25T11:13:55;98523.75;;;9.11;91.66
9281;BME280;4679;47.966;7.958;2024-01-25T11:15:57;98520.72;;;9.14;92.25
9281;BME280;4679;47.966;7.958;2024-01-25T11:18:00;98518.88;;;9.14;91.59
9281;BME280;4679;47.966;7.958;2024-01-25T11:20:02;98524.78;;;9.16;91.40
9281;BME280;4679;47.966;7.958;2024-01-25T11:22:05;98518.47;;;9.17;92.29
9281;BME280;4679;47.966;7.958;2024-01-25T11:24:12;98515.63;;;9.19;92.11
9281;BME280;4679;47.966;7.958;2024-01-25T11:26:15;98519.91;;;9.20;91.83
9281;BME280;4679;47.966;7.958;2024-01-25T11:28:16;98512.97;;;9.19;91.52
9281;BME280;4679;47.966;7.958;2024-01-25T11:30:19;98512.16;;;9.18;91.67
9281;BME280;4679;47.966;7.958;2024-01-25T11:32:21;98508.69;;;9.18;92.33
9281;BME280;4679;47.966;7.958;2024-01-25T11:34:23;98501.34;;;9.20;92.19
9281;BME280;4679;47.966;7.958;2024-01-25T11:36:25;98505.25;;;9.24;91.56
9281;BME280;4679;47.966;7.958;2024-01-25T11:38:28;98503.84;;;9.28;91.97
9281;BME280;4679;47.966;7.958;2024-01-25T11:40:30;98495.50;;;9.31;91.49
9281;BME280;4679;47.966;7.958;2024-01-25T11:42:32;98499.75;;;9.26;91.48
9281;BME280;4679;47.966;7.958;2024-01-25T11:44:33;98491.97;;;9.17;91.57
9281;BME280;4679;47.966;7.958;2024-01-25T11:46:35;98497.91;;;9.20;92.19
9281;BME280;4679;47.966;7.958;2024-01-25T11:48:38;98493.81;;;9.17;91.69
9281;BME280;4679;47.966;7.958;2024-01-25T11:50:40;98491.16;;;9.17;91.66
9281;BME280;4679;47.966;7.958;2024-01-25T11:52:41;98490.75;;;9.20;91.58
9281;BME280;4679;47.966;7.958;2024-01-25T11:54:44;98486.91;;;9.23;92.10
9281;BME280;4679;47.966;7.958;2024-01-25T11:56:46;98487.53;;;9.25;91.59
9281;BME280;4679;47.966;7.958;2024-01-25T11:58:48;98494.66;;;9.24;91.71
9281;BME280;4679;47.966;7.958;2024-01-25T12:00:50;98484.69;;;9.26;91.33
9281;BME280;4679;47.966;7.958;2024-01-25T12:02:52;98483.47;;;9.29;92.03
9281;BME280;4679;47.966;7.958;2024-01-25T12:04:56;98476.13;;;9.24;91.57
9281;BME280;4679;47.966;7.958;2024-01-25T12:06:57;98480.59;;;9.24;91.74
9281;BME280;4679;47.966;7.958;2024-01-25T12:09:06;98479.16;;;9.21;91.60
9281;BME280;4679;47.966;7.958;2024-01-25T12:11:10;98474.50;;;9.16;91.69
9281;BME280;4679;47.966;7.958;2024-01-25T12:13:12;98473.66;;;9.16;91.82
9281;BME280;4679;47.966;7.958;2024-01-25T12:15:14;98465.72;;;9.23;92.14
9281;BME280;4679;47.966;7.958;2024-01-25T12:17:15;98466.97;;;9.27;92.19
9281;BME280;4679;47.966;7.958;2024-01-25T12:19:16;98465.75;;;9.29;91.75
9281;BME280;4679;47.966;7.958;2024-01-25T12:21:18;98459.22;;;9.32;91.98
9281;BME280;4679;47.966;7.958;2024-01-25T12:23:19;98458.81;;;9.35;91.66
9281;BME280;4679;47.966;7.958;2024-01-25T12:25:21;98456.97;;;9.35;91.63
9281;BME280;4679;47.966;7.958;2024-01-25T12:27:25;98462.66;;;9.32;91.62
9281;BME280;4679;47.966;7.958;2024-01-25T12:29:27;98453.94;;;9.32;91.77
9281;BME280;4679;47.966;7.958;2024-01-25T12:31:28;98449.22;;;9.34;92.10
9281;BME280;4679;47.966;7.958;2024-01-25T12:33:31;98438.44;;;9.35;92.04
9281;BME280;4679;47.966;7.958;2024-01-25T12:35:33;98435.38;;;9.38;91.98
9281;BME280;4679;47.966;7.958;2024-01-25T12:37:35;98445.78;;;9.40;92.13
9281;BME280;4679;47.966;7.958;2024-01-25T12:39:37;98436.19;;;9.39;92.12
9281;BME280;4679;47.966;7.958;2024-01-25T12:41:38;98428.44;;;9.37;92.38
9281;BME280;4679;47.966;7.958;2024-01-25T12:43:41;98427.63;;;9.37;91.79
9281;BME280;4679;47.966;7.958;2024-01-25T12:45:43;98418.06;;;9.36;91.44
9281;BME280;4679;47.966;7.958;2024-01-25T12:47:45;98433.13;;;9.35;91.41
9281;BME280;4679;47.966;7.958;2024-01-25T12:49:46;98411.13;;;9.35;92.13
9281;BME280;4679;47.966;7.958;2024-01-25T12:51:47;98412.75;;;9.36;91.62
9281;BME280;4679;47.966;7.958;2024-01-25T12:53:49;98419.69;;;9.37;91.62
9281;BME280;4679;47.966;7.958;2024-01-25T12:55:51;98415.81;;;9.39;91.94
9281;BME280;4679;47.966;7.958;2024-01-25T12:57:52;98414.81;;;9.40;91.52
9281;BME280;4679;47.966;7.958;2024-01-25T12:59:54;98404.81;;;9.42;91.85
9281;BME280;4679;47.966;7.958;2024-01-25T13:01:56;98402.59;;;9.46;91.83
9281;BME280;4679;47.966;7.958;2024-01-25T13:03:57;98399.50;;;9.49;92.11
9281;BME280;4679;47.966;7.958;2024-01-25T13:05:58;98404.19;;;9.53;92.13
9281;BME280;4679;47.966;7.958;2024-01-25T13:08:00;98397.47;;;9.58;92.15
9281;BME280;4679;47.966;7.958;2024-01-25T13:10:01;98398.69;;;9.62;91.97
9281;BME280;4679;47.966;7.958;2024-01-25T13:12:03;98393.41;;;9.62;91.66
9281;BME280;4679;47.966;7.958;2024-01-25T13:14:04;98391.34;;;9.64;92.29
9281;BME280;4679;47.966;7.958;2024-01-25T13:16:07;98383.19;;;9.65;91.29
9281;BME280;4679;47.966;7.958;2024-01-25T13:18:09;98381.16;;;9.67;91.14
9281;BME280;4679;47.966;7.958;2024-01-25T13:20:11;98384.59;;;9.68;92.25
9281;BME280;4679;47.966;7.958;2024-01-25T13:22:13;98381.16;;;9.67;92.11
9281;BME280;4679;47.966;7.958;2024-01-25T13:24:14;98381.75;;;9.69;91.97
9281;BME280;4679;47.966;7.958;2024-01-25T13:26:16;98376.25;;;9.71;91.24
9281;BME280;4679;47.966;7.958;2024-01-25T13:28:17;98376.88;;;9.73;92.34
9281;BME280;4679;47.966;7.958;2024-01-25T13:30:19;98373.00;;;9.75;92.08
9281;BME280;4679;47.966;7.958;2024-01-25T13:32:22;98369.72;;;9.73;91.19
9281;BME280;4679;47.966;7.958;2024-01-25T13:34:24;98370.13;;;9.70;91.73
9281;BME280;4679;47.966;7.958;2024-01-25T13:36:26;98376.66;;;9.68;92.06
9281;BME280;4679;47.966;7.958;2024-01-25T13:38:27;98371.16;;;9.69;92.37
9281;BME280;4679;47.966;7.958;2024-01-25T13:40:28;98361.97;;;9.72;92.30
9281;BME280;4679;47.966;7.958;2024-01-25T13:42:29;98363.63;;;9.73;92.29
9281;BME280;4679;47.966;7.958;2024-01-25T13:44:31;98362.59;;;9.74;91.86
9281;BME280;4679;47.966;7.958;2024-01-25T13:46:32;98363.81;;;9.71;92.08
9281;BME280;4679;47.966;7.958;2024-01-25T13:48:35;98358.72;;;9.70;91.31
9281;BME280;4679;47.966;7.958;2024-01-25T13:50:37;98366.47;;;9.71;91.34
9281;BME280;4679;47.966;7.958;2024-01-25T13:52:38;98357.50;;;9.72;92.00
9281;BME280;4679;47.966;7.958;2024-01-25T13:54:40;98356.69;;;9.72;92.11
9281;BME280;4679;47.966;7.958;2024-01-25T13:56:42;98353.81;;;9.73;91.76
9281;BME280;4679;47.966;7.958;2024-01-25T13:58:43;98358.09;;;9.74;91.76
9281;BME280;4679;47.966;7.958;2024-01-25T14:00:45;98360.75;;;9.74;91.57
9281;BME280;4679;47.966;7.958;2024-01-25T14:02:46;98370.13;;;9.70;92.24
9281;BME280;4679;47.966;7.958;2024-01-25T14:04:48;98358.53;;;9.71;92.02
9281;BME280;4679;47.966;7.958;2024-01-25T14:06:50;98365.25;;;9.74;91.71
9281;BME280;4679;47.966;7.958;2024-01-25T14:08:52;98360.34;;;9.77;91.45
9281;BME280;4679;47.966;7.958;2024-01-25T14:10:53;98363.78;;;9.78;92.22
9281;BME280;4679;47.966;7.958;2024-01-25T14:12:55;98359.91;;;9.80;91.66
9281;BME280;4679;47.966;7.958;2024-01-25T14:14:56;98359.53;;;9.77;91.29
9281;BME280;4679;47.966;7.958;2024-01-25T14:16:58;98356.88;;;9.77;91.22
9281;BME280;4679;47.966;7.958;2024-01-25T14:18:59;98352.16;;;9.79;90.73
9281;BME280;4679;47.966;7.958;2024-01-25T14:21:05;98356.66;;;9.78;91.76
9281;BME280;4679;47.966;7.958;2024-01-25T14:23:06;98346.66;;;9.80;91.22
9281;BME280;4679;47.966;7.958;2024-01-25T14:25:08;98349.31;;;9.80;92.25
9281;BME280;4679;47.966;7.958;2024-01-25T14:27:10;98342.38;;;9.79;91.25
9281;BME280;4679;47.966;7.958;2024-01-25T14:29:12;98341.97;;;9.82;91.77
9281;BME280;4679;47.966;7.958;2024-01-25T14:31:14;98336.66;;;9.82;92.19
9281;BME280;4679;47.966;7.958;2024-01-25T14:33:16;98339.31;;;9.82;91.86
9281;BME280;4679;47.966;7.958;2024-01-25T14:35:17;98338.72;;;9.80;92.27
9281;BME280;4679;47.966;7.958;2024-01-25T14:37:21;98330.97;;;9.79;91.31
9281;BME280;4679;47.966;7.958;2024-01-25T14:39:23;98338.28;;;9.83;91.29
9281;BME280;4679;47.966;7.958;2024-01-25T14:41:24;98335.66;;;9.83;92.33
9281;BME280;4679;47.966;7.958;2024-01-25T14:43:26;98329.53;;;9.83;92.20
9281;BME280;4679;47.966;7.958;2024-01-25T14:45:27;98339.53;;;9.81;91.83
9281;BME280;4679;47.966;7.958;2024-01-25T14:47:32;98328.09;;;9.80;91.87
9281;BME280;4679;47.966;7.958;2024-01-25T14:49:34;98333.41;;;9.80;91.81
9281;BME280;4679;47.966;7.958;2024-01-25T14:51:35;98323.63;;;9.81;92.10
9281;BME280;4679;47.966;7.958;2024-01-25T14:53:38;98320.97;;;9.81;91.56
9281;BME280;4679;47.966;7.958;2024-01-25T14:55:40;98319.34;;;9.80;91.31
9281;BME280;4679;47.966;7.958;2024-01-25T14:57:43;98323.81;;;9.79;91.70
9281;BME280;4679;47.966;7.958;2024-01-25T14:59:45;98318.53;;;9.79;92.43
9281;BME280;4679;47.966;7.958;2024-01-25T15:01:47;98310.78;;;9.78;91.72
9281;BME280;4679;47.966;7.958;2024-01-25T15:03:47;98311.38;;;9.80;91.88
9281;BME280;4679;47.966;7.958;2024-01-25T15:05:49;98305.06;;;9.81;92.09
9281;BME280;4679;47.966;7.958;2024-01-25T15:07:50;98308.53;;;9.81;92.24
9281;BME280;4679;47.966;7.958;2024-01-25T15:09:53;98304.84;;;9.82;91.53
9281;BME280;4679;47.966;7.958;2024-01-25T15:11:55;98310.16;;;9.82;91.64
9281;BME280;4679;47.966;7.958;2024-01-25T15:13:56;98304.03;;;9.82;92.59
9281;BME280;4679;47.966;7.958;2024-01-25T15:15:58;98304.84;;;9.82;92.50
9281;BME280;4679;47.966;7.958;2024-01-25T15:17:58;98304.25;;;9.80;92.20
9281;BME280;4679;47.966;7.958;2024-01-25T15:20:00;98304.25;;;9.80;92.70
9281;BME280;4679;47.966;7.958;2024-01-25T15:22:02;98305.06;;;9.81;92.12
9281;BME280;4679;47.966;7.958;2024-01-25T15:24:04;98306.28;;;9.78;92.30
9281;BME280;4679;47.966;7.958;2024-01-25T15:26:07;98304.91;;;9.76;92.04
9281;BME280;4679;47.966;7.958;2024-01-25T15:28:09;98295.31;;;9.75;92.03
9281;BME280;4679;47.966;7.958;2024-01-25T15:30:10;98296.34;;;9.74;91.40
9281;BME280;4679;47.966;7.958;2024-01-25T15:32:12;98292.06;;;9.73;91.88
9281;BME280;4679;47.966;7.958;2024-01-25T15:34:13;98286.97;;;9.71;92.02
9281;BME280;4679;47.966;7.958;2024-01-25T15:36:16;98294.09;;;9.71;92.43
9281;BME280;4679;47.966;7.958;2024-01-25T15:38:20;98296.94;;;9.69;92.14
9281;BME280;4679;47.966;7.958;2024-01-25T15:40:22;98298.59;;;9.70;92.08
9281;BME280;4679;47.966;7.958;2024-01-25T15:42:24;98292.47;;;9.70;92.62
9281;BME280;4679;47.966;7.958;2024-01-25T15:44:31;98292.25;;;9.71;92.82
9281;BME280;4679;47.966;7.958;2024-01-25T15:46:32;98293.06;;;9.72;92.63
9281;BME280;4679;47.966;7.958;2024-01-25T15:48:34;98283.28;;;9.72;92.36
9281;BME280;4679;47.966;7.958;2024-01-25T15:50:36;98295.72;;;9.72;92.41
9281;BME280;4679;47.966;7.958;2024-01-25T15:52:38;98286.16;;;9.71;92.33
9281;BME280;4679;47.966;7.958;2024-01-25T15:54:39;98282.47;;;9.72;92.58
9281;BME280;4679;47.966;7.958;2024-01-25T15:56:41;98280.84;;;9.71;92.89
9281;BME280;4679;47.966;7.958;2024-01-25T15:58:43;98277.38;;;9.70;92.12
9281;BME280;4679;47.966;7.958;2024-01-25T16:00:44;98273.09;;;9.69;92.37
9281;BME280;4679;47.966;7.958;2024-01-25T16:02:46;98277.59;;;9.69;92.39
9281;BME280;4679;47.966;7.958;2024-01-25T16:04:47;98276.78;;;9.68;93.05
9281;BME280;4679;47.966;7.958;2024-01-25T16:06:48;98277.59;;;9.69;92.72
9281;BME280;4679;47.966;7.958;2024-01-25T16:08:50;98279.63;;;9.67;92.81
9281;BME280;4679;47.966;7.958;2024-01-25T16:10:51;98284.13;;;9.66;92.41
9281;BME280;4679;47.966;7.958;2024-01-25T16:12:53;98290.22;;;9.67;92.14
9281;BME280;4679;47.966;7.958;2024-01-25T16:14:56;98294.50;;;9.68;92.25
9281;BME280;4679;47.966;7.958;2024-01-25T16:16:59;98294.72;;;9.66;93.12
9281;BME280;4679;47.966;7.958;2024-01-25T16:19:00;98289.63;;;9.65;92.16
9281;BME280;4679;47.966;7.958;2024-01-25T16:21:01;98288.81;;;9.64;92.84
9281;BME280;4679;47.966;7.958;2024-01-25T16:23:03;98298.00;;;9.62;93.21
9281;BME280;4679;47.966;7.958;2024-01-25T16:25:04;98300.88;;;9.60;92.75
9281;BME280;4679;47.966;7.958;2024-01-25T16:27:06;98291.50;;;9.58;92.65
9281;BME280;4679;47.966;7.958;2024-01-25T16:29:07;98292.31;;;9.58;92.97
9281;BME280;4679;47.966;7.958;2024-01-25T16:31:10;98295.16;;;9.57;92.39
9281;BME280;4679;47.966;7.958;2024-01-25T16:33:12;98297.19;;;9.55;92.71
9281;BME280;4679;47.966;7.958;2024-01-25T16:35:14;98300.66;;;9.55;92.17
9281;BME280;4679;47.966;7.958;2024-01-25T16:37:16;98287.41;;;9.55;92.79
9281;BME280;4679;47.966;7.958;2024-01-25T16:39:18;98297.00;;;9.56;93.30
9281;BME280;4679;47.966;7.958;2024-01-25T16:41:19;98293.13;;;9.52;93.12
9281;BME280;4679;47.966;7.958;2024-01-25T16:43:21;98298.00;;;9.48;92.67
9281;BME280;4679;47.966;7.958;2024-01-25T16:45:23;98294.53;;;9.48;92.77
9281;BME280;4679;47.966;7.958;2024-01-25T16:47:27;98303.75;;;9.45;93.04
9281;BME280;4679;47.966;7.958;2024-01-25T16:49:28;98308.84;;;9.47;93.36
9281;BME280;4679;47.966;7.958;2024-01-25T16:51:30;98306.97;;;9.47;93.31
9281;BME280;4679;47.966;7.958;2024-01-25T16:53:31;98302.28;;;9.49;92.53
9281;BME280;4679;47.966;7.958;2024-01-25T16:55:33;98308.59;;;9.48;92.38
9281;BME280;4679;47.966;7.958;2024-01-25T16:57:34;98310.44;;;9.48;93.10
9281;BME280;4679;47.966;7.958;2024-01-25T16:59:36;98301.09;;;9.45;93.39
9281;BME280;4679;47.966;7.958;2024-01-25T17:01:37;98307.22;;;9.46;93.26
9281;BME280;4679;47.966;7.958;2024-01-25T17:03:40;98305.78;;;9.43;93.09
9281;BME280;4679;47.966;7.958;2024-01-25T17:05:42;98308.63;;;9.42;93.16
9281;BME280;4679;47.966;7.958;2024-01-25T17:07:43;98313.94;;;9.42;92.49
9281;BME280;4679;47.966;7.958;2024-01-25T17:09:44;98316.59;;;9.42;92.85
9281;BME280;4679;47.966;7.958;2024-01-25T17:11:46;98322.69;;;9.42;92.53
9281;BME280;4679;47.966;7.958;2024-01-25T17:13:47;98312.09;;;9.42;92.88
9281;BME280;4679;47.966;7.958;2024-01-25T17:15:49;98308.44;;;9.43;93.40
9281;BME280;4679;47.966;7.958;2024-01-25T17:17:51;98305.78;;;9.43;92.79
9281;BME280;4679;47.966;7.958;2024-01-25T17:19:54;98302.94;;;9.45;93.17
9281;BME280;4679;47.966;7.958;2024-01-25T17:21:55;98302.72;;;9.46;93.33
9281;BME280;4679;47.966;7.958;2024-01-25T17:23:57;98303.75;;;9.45;93.38
9281;BME280;4679;47.966;7.958;2024-01-25T17:25:59;98312.91;;;9.43;92.66
9281;BME280;4679;47.966;7.958;2024-01-25T17:28:00;98307.81;;;9.41;92.85
9281;BME280;4679;47.966;7.958;2024-01-25T17:30:01;98311.50;;;9.40;92.56
9281;BME280;4679;47.966;7.958;2024-01-25T17:32:03;98312.31;;;9.41;93.85
9281;BME280;4679;47.966;7.958;2024-01-25T17:34:05;98310.47;;;9.41;93.22
9281;BME280;4679;47.966;7.958;2024-01-25T17:36:08;98308.63;;;9.42;93.36
9281;BME280;4679;47.966;7.958;2024-01-25T17:38:10;98313.13;;;9.41;93.28
9281;BME280;4679;47.966;7.958;2024-01-25T17:40:12;98306.00;;;9.42;93.29
9281;BME280;4679;47.966;7.958;2024-01-25T17:42:15;98305.59;;;9.38;93.19
9281;BME280;4679;47.966;7.958;2024-01-25T17:44:17;98308.44;;;9.37;92.95
9281;BME280;4679;47.966;7.958;2024-01-25T17:46:17;98317.41;;;9.36;93.00
9281;BME280;4679;47.966;7.958;2024-01-25T17:48:19;98324.72;;;9.34;93.53
9281;BME280;4679;47.966;7.958;2024-01-25T17:50:20;98325.75;;;9.33;92.79
9281;BME280;4679;47.966;7.958;2024-01-25T17:52:22;98316.78;;;9.34;93.33
9281;BME280;4679;47.966;7.958;2024-01-25T17:54:24;98302.53;;;9.35;93.45
9281;BME280;4679;47.966;7.958;2024-01-25T17:56:26;98305.38;;;9.33;92.77
9281;BME280;4679;47.966;7.958;2024-01-25T17:58:27;98305.38;;;9.33;93.39
9281;BME280;4679;47.966;7.958;2024-01-25T18:00:29;98310.09;;;9.31;92.81
9281;BME280;4679;47.966;7.958;2024-01-25T18:02:30;98314.56;;;9.31;93.58
9281;BME280;4679;47.966;7.958;2024-01-25T18:04:32;98301.34;;;9.31;93.30
9281;BME280;4679;47.966;7.958;2024-01-25T18:06:34;98314.78;;;9.29;93.81
9281;BME280;4679;47.966;7.958;2024-01-25T18:08:36;98311.94;;;9.31;93.41
9281;BME280;4679;47.966;7.958;2024-01-25T18:10:39;98310.91;;;9.32;93.61
9281;BME280;4679;47.966;7.958;2024-01-25T18:12:40;98300.06;;;9.33;93.64
9281;BME280;4679;47.966;7.958;2024-01-25T18:14:42;98297.44;;;9.33;93.40
9281;BME280;4679;47.966;7.958;2024-01-25T18:16:43;98291.31;;;9.33;93.29
9281;BME280;4679;47.966;7.958;2024-01-25T18:18:44;98289.47;;;9.33;93.64
9281;BME280;4679;47.966;7.958;2024-01-25T18:20:45;98294.19;;;9.31;93.59
9281;BME280;4679;47.966;7.958;2024-01-25T18:22:46;98297.88;;;9.30;93.59
9281;BME280;4679;47.966;7.958;2024-01-25T18:24:49;98296.44;;;9.28;93.33
9281;BME280;4679;47.966;7.958;2024-01-25T18:26:51;98309.06;;;9.26;93.56
9281;BME280;4679;47.966;7.958;2024-01-25T18:28:53;98313.56;;;9.25;93.69
9281;BME280;4679;47.966;7.958;2024-01-25T18:30:55;98318.03;;;9.25;93.18
9281;BME280;4679;47.966;7.958;2024-01-25T18:32:57;98319.03;;;9.24;93.23
9281;BME280;4679;47.966;7.958;2024-01-25T18:34:59;98308.66;;;9.22;93.26
9281;BME280;4679;47.966;7.958;2024-01-25T18:37:01;98308.47;;;9.24;93.40
9281;BME280;4679;47.966;7.958;2024-01-25T18:39:02;98309.47;;;9.23;94.00
9281;BME280;4679;47.966;7.958;2024-01-25T18:41:06;98313.13;;;9.22;93.59
9281;BME280;4679;47.966;7.958;2024-01-25T18:43:09;98321.28;;;9.20;93.87
9281;BME280;4679;47.966;7.958;2024-01-25T18:45:10;98322.50;;;9.17;93.81
9281;BME280;4679;47.966;7.958;2024-01-25T18:47:12;98326.97;;;9.17;93.67
9281;BME280;4679;47.966;7.958;2024-01-25T18:49:14;98325.75;;;9.20;93.44
9281;BME280;4679;47.966;7.958;2024-01-25T18:51:16;98329.66;;;9.24;93.43
9281;BME280;4679;47.966;7.958;2024-01-25T18:53:16;98334.94;;;9.37;93.90
9281;BME280;4679;47.966;7.958;2024-01-25T18:55:19;98320.22;;;9.47;93.43
9281;BME280;4679;47.966;7.958;2024-01-25T18:57:23;98321.66;;;9.50;93.19
9281;BME280;4679;47.966;7.958;2024-01-25T18:59:26;98312.47;;;9.52;93.62
9281;BME280;4679;47.966;7.958;2024-01-25T19:01:28;98313.50;;;9.51;94.13